createdAt,value
2023-03-16T00:00:56.353Z,1000.79
2023-03-16T00:01:56.385Z,1000.77
2023-03-16T00:02:56.381Z,1000.76
2023-03-16T00:03:56.399Z,1000.77
2023-03-16T00:04:56.341Z,1000.77
2023-03-16T00:05:56.360Z,1000.77
2023-03-16T00:06:56.343Z,1000.77
2023-03-16T00:07:56.323Z,1000.78
2023-03-16T00:08:56.340Z,1000.81
2023-03-16T00:09:56.353Z,1000.83
2023-03-16T00:10:56.293Z,1000.83
2023-03-16T00:11:56.299Z,1000.83
2023-03-16T00:12:56.284Z,1000.84
2023-03-16T00:13:56.264Z,1000.83
2023-03-16T00:14:56.293Z,1000.83
2023-03-16T00:15:56.352Z,1000.82
2023-03-16T00:16:56.279Z,1000.82
2023-03-16T00:17:56.257Z,1000.83
2023-03-16T00:18:56.238Z,1000.84
2023-03-16T00:19:56.260Z,1000.86
2023-03-16T00:20:56.241Z,1000.87
2023-03-16T00:21:56.306Z,1000.87
2023-03-16T00:22:56.193Z,1000.87
2023-03-16T00:23:56.224Z,1000.88
2023-03-16T00:24:56.188Z,1000.90
2023-03-16T00:25:56.203Z,1000.90
2023-03-16T00:26:56.191Z,1000.91
2023-03-16T00:27:56.251Z,1000.93
2023-03-16T00:28:56.183Z,1000.94
2023-03-16T00:29:56.637Z,1000.94
2023-03-16T00:30:56.137Z,1000.92
2023-03-16T00:31:56.194Z,1000.90
2023-03-16T00:32:56.173Z,1000.87
2023-03-16T00:33:56.221Z,1000.84
2023-03-16T00:34:56.149Z,1000.82
2023-03-16T00:35:56.284Z,1000.82
2023-03-16T00:36:56.117Z,1000.86
2023-03-16T00:37:56.126Z,1000.88
2023-03-16T00:38:56.087Z,1000.91
2023-03-16T00:39:56.279Z,1000.92
2023-03-16T00:40:56.086Z,1000.91
2023-03-16T00:41:56.075Z,1000.88
2023-03-16T00:42:56.070Z,1000.87
2023-03-16T00:43:56.065Z,1000.86
2023-03-16T00:44:56.023Z,1000.87
2023-03-16T00:45:56.146Z,1000.86
2023-03-16T00:46:56.022Z,1000.85
2023-03-16T00:47:56.031Z,1000.84
2023-03-16T00:48:56.035Z,1000.83
2023-03-16T00:49:56.029Z,1000.81
2023-03-16T00:50:56.011Z,1000.80
2023-03-16T00:51:56.052Z,1000.78
2023-03-16T00:52:55.991Z,1000.77
2023-03-16T00:53:56.016Z,1000.77
2023-03-16T00:54:55.962Z,1000.76
2023-03-16T00:55:55.990Z,1000.75
2023-03-16T00:56:55.985Z,1000.72
2023-03-16T00:57:56.009Z,1000.72
2023-03-16T00:58:55.968Z,1000.70
2023-03-16T00:59:55.941Z,1000.69
2023-03-16T01:00:55.970Z,1000.71
2023-03-16T01:01:55.935Z,1000.74
2023-03-16T01:02:55.916Z,1000.78
2023-03-16T01:03:56.014Z,1000.80
2023-03-16T01:04:55.925Z,1000.81
2023-03-16T01:05:55.917Z,1000.81
2023-03-16T01:06:55.908Z,1000.79
2023-03-16T01:07:55.888Z,1000.76
2023-03-16T01:08:55.894Z,1000.75
2023-03-16T01:09:55.924Z,1000.75
2023-03-16T01:10:55.870Z,1000.75
2023-03-16T01:11:55.880Z,1000.74
2023-03-16T01:12:55.850Z,1000.74
2023-03-16T01:13:55.843Z,1000.74
2023-03-16T01:14:55.833Z,1000.73
2023-03-16T01:15:56.255Z,1000.72
2023-03-16T01:16:55.874Z,1000.69
2023-03-16T01:17:55.822Z,1000.65
2023-03-16T01:18:55.813Z,1000.63
2023-03-16T01:19:55.794Z,1000.63
2023-03-16T01:20:55.819Z,1000.64
2023-03-16T01:21:55.868Z,1000.65
2023-03-16T01:22:55.809Z,1000.65
2023-03-16T01:23:55.788Z,1000.64
2023-03-16T01:24:55.780Z,1000.64
2023-03-16T01:25:55.765Z,1000.62
2023-03-16T01:26:55.780Z,1000.61
2023-03-16T01:27:55.827Z,1000.60
2023-03-16T01:28:55.743Z,1000.58
2023-03-16T01:29:55.733Z,1000.57
2023-03-16T01:30:55.782Z,1000.57
2023-03-16T01:31:55.715Z,1000.57
2023-03-16T01:32:55.733Z,1000.57
2023-03-16T01:33:55.736Z,1000.58
2023-03-16T01:34:55.714Z,1000.57
2023-03-16T01:35:55.708Z,1000.55
2023-03-16T01:36:55.663Z,1000.51
2023-03-16T01:37:55.687Z,1000.47
2023-03-16T01:38:55.684Z,1000.44
2023-03-16T01:39:55.700Z,1000.42
2023-03-16T01:40:55.654Z,1000.39
2023-03-16T01:41:55.650Z,1000.36
2023-03-16T01:42:55.619Z,1000.33
2023-03-16T01:43:55.623Z,1000.33
2023-03-16T01:44:55.614Z,1000.33
2023-03-16T01:45:55.727Z,1000.32
2023-03-16T01:46:55.622Z,1000.30
2023-03-16T01:47:55.609Z,1000.29
2023-03-16T01:48:55.635Z,1000.29
2023-03-16T01:49:55.592Z,1000.29
2023-03-16T01:50:55.584Z,1000.28
2023-03-16T01:51:55.613Z,1000.28
2023-03-16T01:52:55.573Z,1000.28
2023-03-16T01:53:55.588Z,1000.29
2023-03-16T01:54:55.588Z,1000.30
2023-03-16T01:55:55.566Z,1000.32
2023-03-16T01:56:55.537Z,1000.35
2023-03-16T01:57:55.581Z,1000.37
2023-03-16T01:58:55.524Z,1000.38
2023-03-16T01:59:55.536Z,1000.40
2023-03-16T02:00:55.520Z,1000.41
2023-03-16T02:01:55.558Z,1000.43
2023-03-16T02:02:55.513Z,1000.44
2023-03-16T02:03:55.614Z,1000.46
2023-03-16T02:04:55.490Z,1000.47
2023-03-16T02:05:55.497Z,1000.47
2023-03-16T02:06:55.473Z,1000.47
2023-03-16T02:07:55.492Z,1000.47
2023-03-16T02:08:55.479Z,1000.48
2023-03-16T02:09:55.542Z,1000.49
2023-03-16T02:10:55.499Z,1000.49
2023-03-16T02:11:55.488Z,1000.49
2023-03-16T02:12:55.431Z,1000.49
2023-03-16T02:13:55.452Z,1000.48
2023-03-16T02:14:55.489Z,1000.47
2023-03-16T02:15:55.544Z,1000.47
2023-03-16T02:16:55.416Z,1000.47
2023-03-16T02:17:55.414Z,1000.45
2023-03-16T02:18:55.416Z,1000.43
2023-03-16T02:19:55.394Z,1000.39
2023-03-16T02:20:55.403Z,1000.34
2023-03-16T02:21:55.810Z,1000.29
2023-03-16T02:22:55.398Z,1000.25
2023-03-16T02:23:55.360Z,1000.21
2023-03-16T02:24:55.395Z,1000.17
2023-03-16T02:25:55.367Z,1000.15
2023-03-16T02:26:55.358Z,1000.14
2023-03-16T02:27:55.375Z,1000.13
2023-03-16T02:28:55.356Z,1000.14
2023-03-16T02:29:55.379Z,1000.13
2023-03-16T02:30:55.371Z,1000.11
2023-03-16T02:31:55.318Z,1000.09
2023-03-16T02:32:55.355Z,1000.10
2023-03-16T02:33:55.353Z,1000.10
2023-03-16T02:34:55.302Z,1000.09
2023-03-16T02:35:55.325Z,1000.09
2023-03-16T02:36:55.286Z,1000.07
2023-03-16T02:37:55.293Z,1000.07
2023-03-16T02:38:55.269Z,1000.07
2023-03-16T02:39:55.326Z,1000.07
2023-03-16T02:40:55.281Z,1000.06
2023-03-16T02:41:55.257Z,1000.04
2023-03-16T02:42:55.256Z,1000.03
2023-03-16T02:43:55.270Z,1000.03
2023-03-16T02:44:55.260Z,1000.03
2023-03-16T02:45:55.285Z,1000.03
2023-03-16T02:46:55.304Z,1000.03
2023-03-16T02:47:55.213Z,1000.03
2023-03-16T02:48:55.209Z,1000.03
2023-03-16T02:49:55.202Z,1000.04
2023-03-16T02:50:55.221Z,1000.06
2023-03-16T02:51:55.254Z,1000.09
2023-03-16T02:52:55.205Z,1000.09
2023-03-16T02:53:55.177Z,1000.09
2023-03-16T02:54:55.168Z,1000.06
2023-03-16T02:55:55.168Z,1000.05
2023-03-16T02:56:55.166Z,1000.05
2023-03-16T02:57:55.203Z,1000.05
2023-03-16T02:58:55.148Z,1000.06
2023-03-16T02:59:55.173Z,1000.05
2023-03-16T03:00:55.131Z,1000.04
2023-03-16T03:01:55.137Z,1000.01
2023-03-16T03:02:55.157Z,1000.00
2023-03-16T03:03:55.157Z,999.98
2023-03-16T03:04:55.114Z,999.98
2023-03-16T03:05:55.106Z,999.96
2023-03-16T03:06:55.099Z,999.94
2023-03-16T03:07:55.084Z,999.91
2023-03-16T03:08:55.085Z,999.89
2023-03-16T03:09:55.132Z,999.90
2023-03-16T03:10:55.052Z,999.91
2023-03-16T03:11:55.043Z,999.94
2023-03-16T03:12:55.060Z,999.97
2023-03-16T03:13:55.069Z,999.99
2023-03-16T03:14:55.025Z,999.99
2023-03-16T03:15:55.135Z,999.97
2023-03-16T03:16:55.044Z,999.96
2023-03-16T03:17:55.044Z,999.96
2023-03-16T03:18:55.037Z,999.95
2023-03-16T03:19:55.013Z,999.95
2023-03-16T03:20:55.014Z,999.93
2023-03-16T03:21:55.048Z,999.91
2023-03-16T03:22:54.968Z,999.89
2023-03-16T03:23:54.985Z,999.85
2023-03-16T03:24:54.986Z,999.81
2023-03-16T03:25:54.980Z,999.79
2023-03-16T03:26:54.975Z,999.78
2023-03-16T03:27:55.443Z,999.79
2023-03-16T03:28:54.946Z,999.81
2023-03-16T03:29:54.943Z,999.83
2023-03-16T03:30:54.915Z,999.84
2023-03-16T03:31:55.009Z,999.85
2023-03-16T03:32:55.023Z,999.85
2023-03-16T03:33:54.939Z,999.86
2023-03-16T03:34:54.910Z,999.85
2023-03-16T03:35:54.917Z,999.83
2023-03-16T03:36:54.887Z,999.83
2023-03-16T03:37:54.876Z,999.82
2023-03-16T03:38:54.864Z,999.80
2023-03-16T03:39:54.897Z,999.77
2023-03-16T03:40:54.869Z,999.76
2023-03-16T03:41:54.843Z,999.77
2023-03-16T03:42:54.860Z,999.79
2023-03-16T03:43:54.828Z,999.80
2023-03-16T03:44:54.832Z,999.80
2023-03-16T03:45:58.328Z,999.78
2023-03-16T03:46:54.868Z,999.77
2023-03-16T03:47:54.814Z,999.76
2023-03-16T03:48:54.812Z,999.77
2023-03-16T03:49:54.807Z,999.79
2023-03-16T03:50:54.788Z,999.80
2023-03-16T03:52:14.059Z,999.81
2023-03-16T03:52:54.779Z,999.82
2023-03-16T03:53:54.781Z,999.83
2023-03-16T03:54:54.774Z,999.85
2023-03-16T03:55:54.755Z,999.87
2023-03-16T03:56:54.749Z,999.88
2023-03-16T03:57:54.786Z,999.90
2023-03-16T03:58:54.744Z,999.90
2023-03-16T03:59:54.752Z,999.91
2023-03-16T04:00:54.762Z,999.90
2023-03-16T04:01:54.753Z,999.88
2023-03-16T04:02:54.867Z,999.84
2023-03-16T04:03:54.757Z,999.82
2023-03-16T04:04:54.707Z,999.82
2023-03-16T04:05:54.692Z,999.83
2023-03-16T04:06:54.707Z,999.84
2023-03-16T04:07:54.707Z,999.85
2023-03-16T04:08:54.683Z,999.86
2023-03-16T04:09:54.751Z,999.85
2023-03-16T04:10:54.660Z,999.84
2023-03-16T04:11:54.655Z,999.83
2023-03-16T04:12:54.658Z,999.83
2023-03-16T04:13:54.636Z,999.82
2023-03-16T04:14:54.663Z,999.83
2023-03-16T04:15:54.675Z,999.83
2023-03-16T04:16:54.686Z,999.82
2023-03-16T04:17:54.644Z,999.81
2023-03-16T04:18:54.611Z,999.80
2023-03-16T04:19:54.624Z,999.81
2023-03-16T04:20:54.612Z,999.81
2023-03-16T04:21:54.620Z,999.80
2023-03-16T04:22:54.586Z,999.78
2023-03-16T04:23:54.569Z,999.78
2023-03-16T04:24:54.577Z,999.77
2023-03-16T04:25:54.560Z,999.74
2023-03-16T04:26:54.563Z,999.72
2023-03-16T04:27:54.612Z,999.71
2023-03-16T04:28:54.536Z,999.70
2023-03-16T04:29:54.523Z,999.69
2023-03-16T04:30:54.645Z,999.68
2023-03-16T04:31:54.521Z,999.67
2023-03-16T04:32:54.622Z,999.64
2023-03-16T04:33:54.946Z,999.62
2023-03-16T04:34:54.509Z,999.58
2023-03-16T04:35:54.537Z,999.57
2023-03-16T04:36:54.478Z,999.55
2023-03-16T04:37:54.479Z,999.54
2023-03-16T04:38:54.470Z,999.55
2023-03-16T04:39:54.498Z,999.55
2023-03-16T04:40:54.469Z,999.57
2023-03-16T04:41:54.459Z,999.58
2023-03-16T04:42:54.453Z,999.59
2023-03-16T04:43:54.449Z,999.60
2023-03-16T04:44:54.453Z,999.62
2023-03-16T04:45:54.502Z,999.61
2023-03-16T04:46:54.420Z,999.61
2023-03-16T04:47:54.425Z,999.62
2023-03-16T04:48:54.426Z,999.63
2023-03-16T04:49:54.403Z,999.65
2023-03-16T04:50:54.414Z,999.67
2023-03-16T04:51:54.430Z,999.68
2023-03-16T04:52:54.384Z,999.68
2023-03-16T04:53:54.394Z,999.67
2023-03-16T04:54:54.380Z,999.66
2023-03-16T04:55:54.378Z,999.66
2023-03-16T04:56:54.385Z,999.66
2023-03-16T04:57:54.404Z,999.65
2023-03-16T04:58:54.349Z,999.64
2023-03-16T04:59:54.331Z,999.61
2023-03-16T05:00:54.373Z,999.60
2023-03-16T05:01:54.385Z,999.61
2023-03-16T05:02:54.335Z,999.63
2023-03-16T05:03:54.346Z,999.66
2023-03-16T05:04:54.316Z,999.68
2023-03-16T05:06:02.260Z,999.69
2023-03-16T05:06:54.295Z,999.69
2023-03-16T05:07:54.279Z,999.67
2023-03-16T05:08:54.299Z,999.65
2023-03-16T05:09:54.329Z,999.64
2023-03-16T05:10:54.283Z,999.63
2023-03-16T05:11:54.278Z,999.62
2023-03-16T05:12:54.273Z,999.60
2023-03-16T05:13:54.249Z,999.59
2023-03-16T05:14:54.248Z,999.59
2023-03-16T05:15:54.317Z,999.58
2023-03-16T05:16:54.267Z,999.56
2023-03-16T05:17:54.248Z,999.57
2023-03-16T05:18:54.198Z,999.59
2023-03-16T05:19:54.217Z,999.61
2023-03-16T05:20:54.201Z,999.63
2023-03-16T05:21:54.237Z,999.65
2023-03-16T05:22:54.196Z,999.67
2023-03-16T05:23:54.170Z,999.67
2023-03-16T05:24:54.213Z,999.67
2023-03-16T05:25:54.220Z,999.67
2023-03-16T05:26:54.166Z,999.64
2023-03-16T05:27:54.217Z,999.61
2023-03-16T05:28:54.195Z,999.58
2023-03-16T05:29:54.141Z,999.54
2023-03-16T05:30:54.197Z,999.52
2023-03-16T05:31:54.136Z,999.49
2023-03-16T05:32:54.178Z,999.47
2023-03-16T05:33:54.166Z,999.45
2023-03-16T05:34:54.103Z,999.44
2023-03-16T05:35:54.170Z,999.44
2023-03-16T05:36:54.131Z,999.45
2023-03-16T05:37:54.104Z,999.46
2023-03-16T05:38:54.075Z,999.46
2023-03-16T05:39:54.412Z,999.46
2023-03-16T05:40:54.060Z,999.48
2023-03-16T05:41:54.056Z,999.49
2023-03-16T05:42:54.071Z,999.50
2023-03-16T05:43:54.065Z,999.49
2023-03-16T05:44:54.067Z,999.47
2023-03-16T05:45:54.098Z,999.46
2023-03-16T05:46:54.101Z,999.47
2023-03-16T05:47:54.034Z,999.50
2023-03-16T05:48:54.046Z,999.51
2023-03-16T05:49:54.032Z,999.53
2023-03-16T05:50:54.034Z,999.52
2023-03-16T05:51:54.035Z,999.51
2023-03-16T05:52:53.991Z,999.49
2023-03-16T05:53:53.993Z,999.47
2023-03-16T05:54:53.972Z,999.45
2023-03-16T05:55:53.986Z,999.44
2023-03-16T05:56:53.974Z,999.42
2023-03-16T05:57:54.012Z,999.42
2023-03-16T05:58:53.968Z,999.41
2023-03-16T05:59:53.989Z,999.44
2023-03-16T06:00:53.945Z,999.46
2023-03-16T06:01:53.954Z,999.49
2023-03-16T06:02:54.027Z,999.51
2023-03-16T06:03:54.022Z,999.52
2023-03-16T06:04:53.899Z,999.52
2023-03-16T06:05:53.926Z,999.52
2023-03-16T06:06:54.285Z,999.51
2023-03-16T06:07:53.888Z,999.50
2023-03-16T06:08:53.923Z,999.51
2023-03-16T06:09:53.910Z,999.51
2023-03-16T06:10:53.892Z,999.54
2023-03-16T06:11:53.880Z,999.53
2023-03-16T06:12:53.882Z,999.52
2023-03-16T06:13:53.858Z,999.53
2023-03-16T06:14:53.837Z,999.51
2023-03-16T06:15:54.001Z,999.50
2023-03-16T06:16:53.876Z,999.50
2023-03-16T06:17:53.821Z,999.50
2023-03-16T06:18:53.824Z,999.52
2023-03-16T06:19:53.828Z,999.53
2023-03-16T06:20:53.805Z,999.54
2023-03-16T06:21:53.902Z,999.52
2023-03-16T06:22:53.792Z,999.52
2023-03-16T06:23:53.796Z,999.53
2023-03-16T06:24:53.792Z,999.51
2023-03-16T06:25:53.780Z,999.52
2023-03-16T06:26:53.769Z,999.51
2023-03-16T06:27:53.810Z,999.50
2023-03-16T06:28:53.754Z,999.51
2023-03-16T06:29:53.779Z,999.51
2023-03-16T06:30:53.749Z,999.51
2023-03-16T06:31:53.849Z,999.52
2023-03-16T06:32:53.780Z,999.54
2023-03-16T06:33:53.765Z,999.56
2023-03-16T06:34:53.713Z,999.57
2023-03-16T06:35:53.773Z,999.59
2023-03-16T06:36:53.706Z,999.60
2023-03-16T06:37:53.715Z,999.57
2023-03-16T06:38:53.684Z,999.55
2023-03-16T06:39:53.735Z,999.54
2023-03-16T06:40:53.691Z,999.52
2023-03-16T06:41:53.666Z,999.52
2023-03-16T06:42:53.684Z,999.54
2023-03-16T06:43:53.661Z,999.55
2023-03-16T06:44:53.654Z,999.56
2023-03-16T06:45:53.927Z,999.56
2023-03-16T06:46:53.677Z,999.56
2023-03-16T06:47:53.643Z,999.56
2023-03-16T06:48:53.626Z,999.57
2023-03-16T06:49:53.621Z,999.59
2023-03-16T06:50:53.608Z,999.60
2023-03-16T06:51:53.650Z,999.61
2023-03-16T06:52:53.659Z,999.62
2023-03-16T06:53:53.605Z,999.62
2023-03-16T06:54:53.601Z,999.62
2023-03-16T06:55:53.578Z,999.61
2023-03-16T06:56:53.562Z,999.60
2023-03-16T06:57:53.615Z,999.59
2023-03-16T06:58:53.546Z,999.60
2023-03-16T06:59:53.535Z,999.61
2023-03-16T07:00:53.554Z,999.60
2023-03-16T07:01:53.558Z,999.60
2023-03-16T07:02:53.534Z,999.60
2023-03-16T07:03:53.580Z,999.58
2023-03-16T07:04:53.504Z,999.56
2023-03-16T07:05:58.952Z,999.56
2023-03-16T07:06:53.498Z,999.54
2023-03-16T07:07:53.485Z,999.54
2023-03-16T07:08:53.501Z,999.54
2023-03-16T07:09:53.515Z,999.54
2023-03-16T07:10:53.439Z,999.54
2023-03-16T07:11:53.469Z,999.53
2023-03-16T07:12:53.490Z,999.53
2023-03-16T07:13:53.447Z,999.54
2023-03-16T07:14:54.312Z,999.54
2023-03-16T07:15:53.478Z,999.53
2023-03-16T07:16:53.489Z,999.54
2023-03-16T07:17:53.406Z,999.53
2023-03-16T07:18:53.435Z,999.53
2023-03-16T07:19:53.396Z,999.55
2023-03-16T07:20:53.427Z,999.57
2023-03-16T07:21:53.458Z,999.58
2023-03-16T07:22:53.374Z,999.58
2023-03-16T07:23:53.378Z,999.59
2023-03-16T07:24:53.382Z,999.59
2023-03-16T07:25:53.359Z,999.59
2023-03-16T07:26:53.364Z,999.59
2023-03-16T07:27:53.412Z,999.58
2023-03-16T07:28:53.346Z,999.59
2023-03-16T07:29:53.356Z,999.60
2023-03-16T07:31:03.396Z,999.61
2023-03-16T07:31:54.349Z,999.61
2023-03-16T07:32:53.465Z,999.61
2023-03-16T07:33:53.348Z,999.61
2023-03-16T07:34:53.285Z,999.61
2023-03-16T07:35:53.381Z,999.61
2023-03-16T07:36:53.291Z,999.62
2023-03-16T07:37:53.297Z,999.64
2023-03-16T07:38:53.280Z,999.64
2023-03-16T07:39:53.318Z,999.64
2023-03-16T07:40:53.252Z,999.63
2023-03-16T07:41:53.248Z,999.61
2023-03-16T07:42:53.264Z,999.60
2023-03-16T07:43:53.230Z,999.60
2023-03-16T07:44:53.260Z,999.60
2023-03-16T07:45:53.647Z,999.61
2023-03-16T07:46:53.233Z,999.61
2023-03-16T07:47:53.200Z,999.60
2023-03-16T07:48:53.204Z,999.60
2023-03-16T07:49:53.193Z,999.60
2023-03-16T07:50:53.184Z,999.60
2023-03-16T07:51:53.204Z,999.60
2023-03-16T07:52:53.154Z,999.59
2023-03-16T07:53:53.177Z,999.60
2023-03-16T07:54:53.197Z,999.59
2023-03-16T07:55:53.158Z,999.58
2023-03-16T07:56:53.157Z,999.57
2023-03-16T07:57:53.203Z,999.57
2023-03-16T07:58:53.212Z,999.57
2023-03-16T07:59:53.118Z,999.56
2023-03-16T08:00:53.100Z,999.57
2023-03-16T08:01:53.103Z,999.57
2023-03-16T08:02:53.120Z,999.58
2023-03-16T08:03:53.185Z,999.57
2023-03-16T08:04:53.065Z,999.55
2023-03-16T08:05:53.064Z,999.54
2023-03-16T08:06:53.070Z,999.52
2023-03-16T08:07:53.052Z,999.51
2023-03-16T08:08:53.063Z,999.50
2023-03-16T08:09:53.109Z,999.48
2023-03-16T08:10:54.565Z,999.47
2023-03-16T08:11:53.031Z,999.46
2023-03-16T08:12:53.053Z,999.44
2023-03-16T08:13:53.035Z,999.43
2023-03-16T08:14:53.089Z,999.42
2023-03-16T08:15:53.123Z,999.41
2023-03-16T08:16:52.996Z,999.40
2023-03-16T08:17:52.995Z,999.41
2023-03-16T08:18:52.994Z,999.41
2023-03-16T08:19:53.011Z,999.40
2023-03-16T08:20:52.939Z,999.41
2023-03-16T08:22:01.051Z,999.41
2023-03-16T08:22:53.962Z,999.42
2023-03-16T08:23:52.970Z,999.43
2023-03-16T08:24:52.921Z,999.45
2023-03-16T08:25:52.953Z,999.46
2023-03-16T08:26:52.971Z,999.45
2023-03-16T08:27:52.940Z,999.45
2023-03-16T08:28:52.934Z,999.43
2023-03-16T08:29:52.921Z,999.42
2023-03-16T08:30:53.069Z,999.42
2023-03-16T08:31:52.904Z,999.40
2023-03-16T08:32:52.939Z,999.40
2023-03-16T08:33:52.907Z,999.38
2023-03-16T08:34:52.883Z,999.39
2023-03-16T08:35:52.886Z,999.37
2023-03-16T08:36:52.880Z,999.38
2023-03-16T08:37:52.843Z,999.36
2023-03-16T08:39:05.927Z,999.32
2023-03-16T08:39:53.898Z,999.29
2023-03-16T08:40:52.828Z,999.27
2023-03-16T08:41:52.832Z,999.26
2023-03-16T08:42:52.828Z,999.25
2023-03-16T08:43:52.818Z,999.24
2023-03-16T08:44:52.806Z,999.23
2023-03-16T08:45:52.811Z,999.23
2023-03-16T08:46:52.832Z,999.21
2023-03-16T08:47:52.762Z,999.20
2023-03-16T08:48:52.757Z,999.22
2023-03-16T08:49:52.751Z,999.22
2023-03-16T08:50:52.733Z,999.21
2023-03-16T08:51:53.049Z,999.21
2023-03-16T08:52:52.734Z,999.22
2023-03-16T08:53:52.777Z,999.21
2023-03-16T08:55:02.446Z,999.18
2023-03-16T08:55:53.722Z,999.17
2023-03-16T08:56:52.727Z,999.16
2023-03-16T08:57:52.795Z,999.13
2023-03-16T08:58:52.726Z,999.14
2023-03-16T08:59:52.693Z,999.13
2023-03-16T09:00:52.653Z,999.12
2023-03-16T09:01:52.806Z,999.12
2023-03-16T09:02:52.672Z,999.14
2023-03-16T09:03:52.890Z,999.14
2023-03-16T09:04:52.645Z,999.17
2023-03-16T09:05:52.676Z,999.16
2023-03-16T09:07:05.989Z,999.19
2023-03-16T09:07:53.627Z,999.22
2023-03-16T09:08:52.634Z,999.20
2023-03-16T09:09:52.686Z,999.20
2023-03-16T09:10:52.617Z,999.21
2023-03-16T09:11:52.595Z,999.15
2023-03-16T09:12:52.600Z,999.19
2023-03-16T09:13:53.206Z,999.20
2023-03-16T09:14:52.585Z,999.20
2023-03-16T09:15:52.719Z,999.20
2023-03-16T09:16:52.679Z,999.19
2023-03-16T09:17:52.580Z,999.15
2023-03-16T09:18:52.570Z,999.16
2023-03-16T09:19:54.474Z,999.14
2023-03-16T09:20:52.543Z,999.12
2023-03-16T09:21:52.588Z,999.11
2023-03-16T09:22:52.533Z,999.10
2023-03-16T09:23:52.505Z,999.08
2023-03-16T09:24:52.508Z,999.09
2023-03-16T09:25:52.527Z,999.10
2023-03-16T09:26:52.508Z,999.09
2023-03-16T09:27:52.526Z,999.10
2023-03-16T09:28:52.499Z,999.08
2023-03-16T09:29:52.490Z,999.10
2023-03-16T09:30:52.481Z,999.11
2023-03-16T09:31:52.528Z,999.12
2023-03-16T09:32:52.577Z,999.13
2023-03-16T09:33:52.483Z,999.11
2023-03-16T09:34:52.442Z,999.11
2023-03-16T09:35:52.509Z,999.11
2023-03-16T09:36:52.425Z,999.11
2023-03-16T09:38:07.152Z,999.15
2023-03-16T09:38:53.488Z,999.13
2023-03-16T09:39:55.846Z,999.14
2023-03-16T09:40:53.385Z,999.10
2023-03-16T09:41:52.395Z,999.12
2023-03-16T09:42:52.379Z,999.11
2023-03-16T09:43:52.382Z,999.12
2023-03-16T09:44:52.393Z,999.12
2023-03-16T09:45:52.428Z,999.08
2023-03-16T09:46:52.331Z,999.08
2023-03-16T09:47:52.356Z,999.03
2023-03-16T09:48:52.337Z,999.02
2023-03-16T09:49:52.341Z,999.03
2023-03-16T09:50:52.709Z,998.98
2023-03-16T09:51:52.377Z,999.01
2023-03-16T09:52:52.298Z,998.99
2023-03-16T09:53:52.315Z,998.99
2023-03-16T09:54:52.294Z,998.99
2023-03-16T09:55:52.297Z,998.96
2023-03-16T09:56:52.757Z,998.95
2023-03-16T09:57:52.266Z,998.94
2023-03-16T09:58:52.241Z,998.90
2023-03-16T09:59:52.279Z,998.93
2023-03-16T10:00:52.287Z,998.92
2023-03-16T10:01:52.245Z,998.93
2023-03-16T10:02:52.269Z,998.93
2023-03-16T10:03:52.234Z,998.92
2023-03-16T10:04:52.214Z,998.93
2023-03-16T10:05:52.200Z,998.94
2023-03-16T10:06:52.199Z,998.92
2023-03-16T10:07:52.216Z,998.93
2023-03-16T10:08:52.213Z,998.91
2023-03-16T10:09:52.163Z,998.92
2023-03-16T10:10:52.158Z,998.87
2023-03-16T10:11:52.164Z,998.89
2023-03-16T10:12:52.168Z,998.89
2023-03-16T10:13:52.149Z,998.90
2023-03-16T10:14:52.226Z,998.89
2023-03-16T10:15:52.128Z,998.89
2023-03-16T10:16:52.216Z,998.89
2023-03-16T10:17:52.105Z,998.87
2023-03-16T10:18:52.114Z,998.86
2023-03-16T10:19:52.116Z,998.84
2023-03-16T10:20:52.127Z,998.83
2023-03-16T10:21:52.073Z,998.82
2023-03-16T10:22:52.075Z,998.82
2023-03-16T10:23:52.104Z,998.82
2023-03-16T10:24:52.066Z,998.83
2023-03-16T10:25:52.052Z,998.81
2023-03-16T10:26:52.085Z,998.80
2023-03-16T10:27:52.051Z,998.80
2023-03-16T10:28:52.097Z,998.79
2023-03-16T10:29:52.058Z,998.80
2023-03-16T10:30:52.022Z,998.81
2023-03-16T10:31:52.032Z,998.82
2023-03-16T10:32:52.306Z,998.79
2023-03-16T10:33:51.998Z,998.82
2023-03-16T10:34:51.984Z,998.72
2023-03-16T10:35:51.997Z,998.76
2023-03-16T10:36:51.965Z,998.74
2023-03-16T10:37:51.980Z,998.76
2023-03-16T10:38:52.020Z,998.76
2023-03-16T10:39:51.966Z,998.74
2023-03-16T10:40:51.969Z,998.67
2023-03-16T10:41:51.944Z,998.67
2023-03-16T10:42:52.017Z,998.72
2023-03-16T10:43:51.935Z,998.66
2023-03-16T10:44:51.952Z,998.64
2023-03-16T10:45:53.536Z,998.63
2023-03-16T10:46:52.006Z,998.68
2023-03-16T10:47:51.923Z,998.58
2023-03-16T10:48:51.891Z,998.58
2023-03-16T10:49:51.916Z,998.54
2023-03-16T10:50:51.997Z,998.59
2023-03-16T10:51:51.908Z,998.52
2023-03-16T10:52:51.987Z,998.54
2023-03-16T10:53:51.841Z,998.53
2023-03-16T10:54:52.024Z,998.52
2023-03-16T10:55:51.839Z,998.50
2023-03-16T10:56:51.881Z,998.51
2023-03-16T10:57:51.837Z,998.48
2023-03-16T10:58:51.873Z,998.49
2023-03-16T10:59:51.814Z,998.50
2023-03-16T11:00:51.862Z,998.45
2023-03-16T11:01:51.805Z,998.51
2023-03-16T11:02:52.138Z,998.54
2023-03-16T11:03:51.793Z,998.52
2023-03-16T11:04:51.807Z,998.49
2023-03-16T11:05:51.775Z,998.50
2023-03-16T11:06:51.792Z,998.48
2023-03-16T11:07:51.780Z,998.51
2023-03-16T11:08:52.936Z,998.53
2023-03-16T11:09:51.751Z,998.57
2023-03-16T11:10:56.010Z,998.57
2023-03-16T11:11:51.747Z,998.57
2023-03-16T11:12:51.718Z,998.54
2023-03-16T11:13:51.769Z,998.53
2023-03-16T11:14:51.777Z,998.51
2023-03-16T11:15:51.695Z,998.50
2023-03-16T11:16:51.727Z,998.46
2023-03-16T11:17:51.732Z,998.46
2023-03-16T11:18:51.691Z,998.39
2023-03-16T11:19:51.668Z,998.44
2023-03-16T11:20:51.737Z,998.37
2023-03-16T11:21:51.677Z,998.32
2023-03-16T11:22:51.725Z,998.28
2023-03-16T11:23:51.750Z,998.33
2023-03-16T11:24:51.719Z,998.35
2023-03-16T11:25:51.732Z,998.37
2023-03-16T11:26:54.858Z,998.34
2023-03-16T11:27:51.610Z,998.34
2023-03-16T11:28:51.625Z,998.32
2023-03-16T11:29:51.630Z,998.32
2023-03-16T11:30:51.865Z,998.26
2023-03-16T11:31:51.651Z,998.26
2023-03-16T11:32:51.831Z,998.22
2023-03-16T11:33:51.591Z,998.22
2023-03-16T11:34:51.569Z,998.25
2023-03-16T11:35:58.754Z,998.22
2023-03-16T11:36:52.637Z,998.23
2023-03-16T11:37:51.617Z,998.20
2023-03-16T11:38:51.657Z,998.21
2023-03-16T11:39:51.601Z,998.20
2023-03-16T11:40:51.591Z,998.16
2023-03-16T11:41:51.550Z,998.08
2023-03-16T11:42:51.571Z,998.03
2023-03-16T11:43:51.545Z,998.01
2023-03-16T11:44:51.715Z,998.03
2023-03-16T11:45:51.598Z,998.05
2023-03-16T11:46:51.505Z,998.08
2023-03-16T11:47:51.463Z,998.10
2023-03-16T11:48:51.523Z,998.10
2023-03-16T11:49:51.536Z,998.08
2023-03-16T11:50:51.677Z,998.05
2023-03-16T11:51:51.539Z,998.10
2023-03-16T11:52:51.520Z,998.10
2023-03-16T11:53:51.431Z,998.04
2023-03-16T11:54:51.480Z,998.00
2023-03-16T11:55:51.442Z,997.93
2023-03-16T11:56:51.500Z,997.94
2023-03-16T11:57:51.809Z,997.89
2023-03-16T11:58:51.518Z,997.83
2023-03-16T12:00:00.554Z,997.82
2023-03-16T12:00:52.600Z,997.82
2023-03-16T12:02:00.121Z,997.84
2023-03-16T12:02:53.000Z,997.81
2023-03-16T12:03:51.339Z,997.82
2023-03-16T12:04:51.447Z,997.83
2023-03-16T12:05:51.467Z,997.81
2023-03-16T12:06:51.342Z,997.88
2023-03-16T12:07:51.393Z,997.84
2023-03-16T12:08:52.477Z,997.82
2023-03-16T12:09:51.316Z,997.81
2023-03-16T12:10:51.393Z,997.80
2023-03-16T12:11:51.300Z,997.79
2023-03-16T12:12:52.249Z,997.76
2023-03-16T12:13:51.342Z,997.76
2023-03-16T12:14:53.402Z,997.75
2023-03-16T12:15:51.379Z,997.73
2023-03-16T12:16:51.449Z,997.72
2023-03-16T12:17:51.333Z,997.70
2023-03-16T12:18:51.278Z,997.67
2023-03-16T12:19:51.318Z,997.60
2023-03-16T12:20:53.383Z,997.58
2023-03-16T12:21:54.298Z,997.55
2023-03-16T12:22:51.266Z,997.56